Time;durP1;ratioP1;P1;durP2;ratioP2;P2;SDS_P1;SDS_P2;PMS_P1;PMS_P2;Temp;Humidity;BMP_temperature;BMP_pressure;BME280_temperature;BME280_humidity;BME280_pressure;Samples;Min_cycle;Max_cycle;Signal;HPM_P1;HPM_P2
2022/02/27 00:02:25;;;;;;;16.50;5.20;;;0.80;99.90;;;;;;5063960;28;20407;-68
2022/02/27 00:04:50;;;;;;;15.77;5.25;;;0.80;99.90;;;;;;5060924;28;20452;-68
2022/02/27 00:07:16;;;;;;;15.60;5.18;;;0.80;99.90;;;;;;5059159;28;20028;-68
2022/02/27 00:09:42;;;;;;;17.92;5.55;;;0.80;99.90;;;;;;5063817;28;20067;-68
2022/02/27 00:12:08;;;;;;;14.23;5.25;;;0.80;99.90;;;;;;5079770;28;20036;-68
2022/02/27 00:14:33;;;;;;;11.55;5.13;;;0.80;99.90;;;;;;5061109;28;20040;-68
2022/02/27 00:16:59;;;;;;;14.90;5.38;;;0.80;99.90;;;;;;5064161;28;20044;-68
2022/02/27 00:19:24;;;;;;;17.17;5.60;;;0.80;99.90;;;;;;5061595;28;20051;-68
2022/02/27 00:21:51;;;;;;;17.27;6.10;;;0.80;99.90;;;;;;5075742;28;20085;-68
2022/02/27 00:24:17;;;;;;;20.02;6.47;;;0.80;99.90;;;;;;5061806;28;20123;-68
2022/02/27 00:26:43;;;;;;;17.35;5.45;;;0.70;99.90;;;;;;5061889;28;20036;-68
2022/02/27 00:29:09;;;;;;;16.15;5.65;;;0.70;99.90;;;;;;5076327;28;20063;-68
2022/02/27 00:31:35;;;;;;;20.52;5.47;;;0.70;99.90;;;;;;5078298;28;20043;-67
2022/02/27 00:34:01;;;;;;;13.48;5.22;;;0.60;99.90;;;;;;5064253;28;20040;-68
2022/02/27 00:36:26;;;;;;;13.57;4.82;;;0.60;99.90;;;;;;5080258;28;20036;-67
2022/02/27 00:38:52;;;;;;;13.55;4.95;;;0.60;99.90;;;;;;5060899;28;20092;-67
2022/02/27 00:41:18;;;;;;;15.73;5.28;;;0.50;99.90;;;;;;5065010;28;20126;-67
2022/02/27 00:43:44;;;;;;;17.45;5.63;;;0.50;99.90;;;;;;5043400;28;20048;-68
2022/02/27 00:46:10;;;;;;;16.58;5.55;;;0.50;99.90;;;;;;5062335;28;20056;-68
2022/02/27 00:48:36;;;;;;;18.00;5.70;;;0.50;99.90;;;;;;5065820;28;20051;-68
2022/02/27 00:51:02;;;;;;;13.98;5.63;;;0.50;99.90;;;;;;5058328;28;20101;-68
2022/02/27 00:53:27;;;;;;;17.83;5.90;;;0.40;99.90;;;;;;5061085;28;21357;-68
2022/02/27 00:55:53;;;;;;;16.30;4.75;;;0.50;99.90;;;;;;5082317;28;20118;-68
2022/02/27 00:58:19;;;;;;;15.68;5.78;;;0.40;99.90;;;;;;5061184;28;20285;-68
2022/02/27 01:00:45;;;;;;;16.38;5.00;;;0.40;99.90;;;;;;5061717;28;20232;-68
2022/02/27 01:03:10;;;;;;;13.02;5.05;;;0.50;99.90;;;;;;5080064;28;20488;-68
2022/02/27 01:05:37;;;;;;;16.65;5.07;;;0.50;99.90;;;;;;5060672;28;20060;-68
2022/02/27 01:08:03;;;;;;;19.65;5.18;;;0.50;99.90;;;;;;5057973;28;20093;-68
2022/02/27 01:10:29;;;;;;;18.80;6.43;;;0.40;99.90;;;;;;5063960;28;20040;-68
2022/02/27 01:12:54;;;;;;;15.88;5.47;;;0.50;99.90;;;;;;5059619;28;20032;-68
2022/02/27 01:15:20;;;;;;;12.35;6.20;;;0.50;99.90;;;;;;5046082;28;20484;-68
2022/02/27 01:17:46;;;;;;;17.23;5.82;;;0.50;99.90;;;;;;5067155;28;20069;-68
2022/02/27 01:20:12;;;;;;;14.35;5.90;;;0.50;99.90;;;;;;5062414;28;20154;-68
2022/02/27 01:22:38;;;;;;;15.10;6.03;;;0.50;99.90;;;;;;5062066;28;20046;-68
2022/02/27 01:25:05;;;;;;;18.13;6.65;;;0.50;99.90;;;;;;5084189;28;20105;-68
2022/02/27 01:27:31;;;;;;;16.75;6.70;;;0.60;99.90;;;;;;5067209;28;20094;-68
2022/02/27 01:29:57;;;;;;;18.48;6.10;;;0.60;99.90;;;;;;5060231;28;20037;-68
2022/02/27 01:32:23;;;;;;;14.13;6.05;;;0.60;99.90;;;;;;5084651;28;20408;-68
2022/02/27 01:34:49;;;;;;;17.10;5.93;;;0.60;99.90;;;;;;5064292;28;20036;-68
2022/02/27 01:37:15;;;;;;;19.10;6.47;;;0.60;99.90;;;;;;5078772;28;20043;-68
2022/02/27 01:39:41;;;;;;;16.27;6.13;;;0.60;99.90;;;;;;5065457;28;20055;-68
2022/02/27 01:42:14;;;;;;;15.65;5.57;;;0.60;99.90;;;;;;5066943;28;20043;-68
2022/02/27 01:44:41;;;;;;;15.15;5.82;;;0.60;99.90;;;;;;5060763;28;20044;-68
2022/02/27 01:47:10;;;;;;;14.45;4.90;;;0.60;99.90;;;;;;5082903;28;20048;-68
2022/02/27 01:49:37;;;;;;;17.40;5.28;;;0.60;99.90;;;;;;5064579;28;20063;-68
2022/02/27 01:52:03;;;;;;;15.00;5.63;;;0.70;99.90;;;;;;5064548;28;20092;-68
2022/02/27 01:54:30;;;;;;;15.82;5.55;;;0.60;99.90;;;;;;5063907;28;20031;-68
2022/02/27 01:56:57;;;;;;;16.15;5.75;;;0.60;99.90;;;;;;5065759;28;20036;-68
2022/02/27 01:59:23;;;;;;;19.55;5.20;;;0.70;99.90;;;;;;5064423;28;20039;-68
2022/02/27 02:01:49;;;;;;;18.60;5.38;;;0.60;99.90;;;;;;5059156;28;20066;-68
2022/02/27 02:04:15;;;;;;;15.88;4.45;;;0.70;99.90;;;;;;5063347;28;20036;-68
2022/02/27 02:06:41;;;;;;;19.00;5.45;;;0.70;99.90;;;;;;5064262;28;20506;-68
2022/02/27 02:09:07;;;;;;;13.10;5.00;;;0.70;99.90;;;;;;5066186;28;20048;-68
2022/02/27 02:11:34;;;;;;;22.42;4.78;;;0.70;99.90;;;;;;5065066;28;20056;-68
2022/02/27 02:14:02;;;;;;;13.32;4.65;;;0.70;99.90;;;;;;5064774;28;20043;-68
2022/02/27 02:16:39;;;;;;;15.90;5.13;;;0.70;99.90;;;;;;5061265;28;20048;-68
2022/02/27 02:19:05;;;;;;;15.98;4.65;;;0.80;99.90;;;;;;5080615;28;20054;-68
2022/02/27 02:21:39;;;;;;;11.85;4.00;;;0.80;99.90;;;;;;5084568;28;20040;-68
2022/02/27 02:24:05;;;;;;;12.93;4.38;;;0.80;99.90;;;;;;5062014;28;20051;-68
2022/02/27 02:26:31;;;;;;;21.42;5.53;;;0.90;99.90;;;;;;5081232;28;20044;-68
2022/02/27 02:28:57;;;;;;;14.50;5.22;;;0.90;99.90;;;;;;5085594;28;20069;-68
2022/02/27 02:31:23;;;;;;;15.02;4.70;;;1.00;99.90;;;;;;5061198;28;20098;-68
2022/02/27 02:33:48;;;;;;;19.33;4.30;;;1.00;99.90;;;;;;5063416;28;20032;-68
2022/02/27 02:36:14;;;;;;;14.98;4.32;;;0.90;99.90;;;;;;5064920;28;20365;-68
2022/02/27 02:38:40;;;;;;;16.60;4.78;;;0.90;99.90;;;;;;5080334;28;20039;-68
2022/02/27 02:41:06;;;;;;;12.20;4.70;;;0.90;99.90;;;;;;5062423;28;20335;-68
2022/02/27 02:43:32;;;;;;;14.73;4.97;;;0.90;99.90;;;;;;5082316;28;20057;-70
2022/02/27 02:45:57;;;;;;;16.45;4.60;;;0.90;99.90;;;;;;5062563;28;20100;-68
2022/02/27 02:48:24;;;;;;;18.55;4.93;;;0.90;99.90;;;;;;5064500;28;20500;-68
2022/02/27 02:50:49;;;;;;;17.13;5.40;;;0.80;99.90;;;;;;5065123;28;20048;-68
2022/02/27 02:53:15;;;;;;;16.73;4.85;;;0.80;99.90;;;;;;5061781;28;20040;-69
2022/02/27 02:55:41;;;;;;;12.65;3.88;;;0.80;99.90;;;;;;5064220;28;20456;-68
2022/02/27 02:58:06;;;;;;;13.75;4.30;;;0.80;99.90;;;;;;5056636;28;20040;-68
2022/02/27 03:00:33;;;;;;;16.38;4.63;;;0.80;99.90;;;;;;5079418;28;20572;-69
2022/02/27 03:02:59;;;;;;;14.32;4.30;;;0.80;99.90;;;;;;5060064;28;20573;-68
2022/02/27 03:05:24;;;;;;;17.75;4.50;;;0.80;99.90;;;;;;5081345;28;20170;-69
2022/02/27 03:07:50;;;;;;;19.55;5.18;;;0.80;99.90;;;;;;5079193;28;20439;-68
2022/02/27 03:10:15;;;;;;;13.75;4.82;;;0.90;99.90;;;;;;5061455;28;20044;-69
2022/02/27 03:12:41;;;;;;;18.25;5.50;;;0.80;99.90;;;;;;5081801;28;20036;-68
2022/02/27 03:15:08;;;;;;;20.95;4.80;;;0.80;99.90;;;;;;5064245;28;20146;-68
2022/02/27 03:17:34;;;;;;;18.02;5.15;;;0.90;99.90;;;;;;5058262;28;20663;-68
2022/02/27 03:20:00;;;;;;;13.30;4.75;;;0.80;99.90;;;;;;5062856;28;20123;-68
2022/02/27 03:22:26;;;;;;;18.75;5.45;;;0.90;99.90;;;;;;5079903;28;20040;-68
2022/02/27 03:24:51;;;;;;;18.65;4.97;;;0.90;99.90;;;;;;5063542;28;20411;-68
2022/02/27 03:27:17;;;;;;;15.13;4.75;;;0.90;99.90;;;;;;5063541;28;20052;-68
2022/02/27 03:29:43;;;;;;;14.38;5.25;;;0.90;99.90;;;;;;5084577;28;20119;-68
2022/02/27 03:32:09;;;;;;;16.33;4.53;;;0.90;99.90;;;;;;5061649;28;20043;-68
2022/02/27 03:34:34;;;;;;;18.35;5.63;;;0.90;99.90;;;;;;5063277;28;20485;-68
2022/02/27 03:37:00;;;;;;;17.60;5.20;;;0.90;99.90;;;;;;5062600;28;20040;-68
2022/02/27 03:39:26;;;;;;;15.07;5.18;;;0.90;99.90;;;;;;5080895;28;20047;-68
2022/02/27 03:41:51;;;;;;;15.38;5.57;;;0.80;99.90;;;;;;5060636;28;20455;-68
2022/02/27 03:44:17;;;;;;;16.95;4.97;;;0.80;99.90;;;;;;5062109;28;20318;-68
2022/02/27 03:46:43;;;;;;;20.88;6.03;;;0.70;99.90;;;;;;5077818;28;20499;-68
2022/02/27 03:49:09;;;;;;;18.58;4.90;;;0.70;99.90;;;;;;5080044;28;20056;-68
2022/02/27 03:51:35;;;;;;;17.45;5.68;;;0.70;99.90;;;;;;5048132;28;20760;-68
2022/02/27 03:54:03;;;;;;;14.55;5.15;;;0.70;99.90;;;;;;5059752;28;20407;-68
2022/02/27 03:56:29;;;;;;;20.48;4.95;;;0.70;99.90;;;;;;5063798;28;20131;-68
2022/02/27 03:58:54;;;;;;;12.85;4.85;;;0.70;99.90;;;;;;5065038;28;20040;-68
2022/02/27 04:01:20;;;;;;;16.95;4.93;;;0.60;99.90;;;;;;5062456;28;20063;-68
2022/02/27 04:03:46;;;;;;;14.57;4.80;;;0.60;99.90;;;;;;5061393;28;20170;-68
2022/02/27 04:06:12;;;;;;;15.38;5.78;;;0.60;99.90;;;;;;5062613;28;20048;-68
2022/02/27 04:08:39;;;;;;;13.77;5.65;;;0.60;99.90;;;;;;5080153;28;20119;-68
2022/02/27 04:11:05;;;;;;;18.42;4.90;;;0.60;99.90;;;;;;5061298;28;20054;-68
2022/02/27 04:13:30;;;;;;;19.13;5.03;;;0.60;99.90;;;;;;5060275;28;20097;-68
2022/02/27 04:15:56;;;;;;;15.00;5.07;;;0.60;99.90;;;;;;5064115;28;20040;-68
2022/02/27 04:18:22;;;;;;;20.42;5.45;;;0.60;99.90;;;;;;5059485;28;20071;-68
2022/02/27 04:20:47;;;;;;;13.50;4.40;;;0.60;99.90;;;;;;5080639;28;20051;-68
2022/02/27 04:23:13;;;;;;;12.73;4.70;;;0.60;99.90;;;;;;5061473;28;20055;-68
2022/02/27 04:25:39;;;;;;;15.18;4.53;;;0.50;99.90;;;;;;5060764;28;20044;-68
2022/02/27 04:28:04;;;;;;;17.08;4.85;;;0.60;99.90;;;;;;5062443;28;20040;-68
2022/02/27 04:30:30;;;;;;;21.02;5.35;;;0.50;99.90;;;;;;5061670;28;20051;-68
2022/02/27 04:32:56;;;;;;;18.45;5.25;;;0.50;99.90;;;;;;5078065;28;20025;-68
2022/02/27 04:35:22;;;;;;;13.93;5.20;;;0.50;99.90;;;;;;5064421;28;20036;-68
2022/02/27 04:37:47;;;;;;;15.60;4.93;;;0.50;99.90;;;;;;5062403;28;20111;-67
2022/02/27 04:40:13;;;;;;;18.95;5.15;;;0.50;99.90;;;;;;5059299;28;20032;-67
2022/02/27 04:42:40;;;;;;;15.80;5.93;;;0.50;99.90;;;;;;5061514;28;20039;-67
2022/02/27 04:45:08;;;;;;;17.13;5.20;;;0.50;99.90;;;;;;5060368;28;20048;-67
2022/02/27 04:47:33;;;;;;;13.40;5.30;;;0.50;99.90;;;;;;5055010;28;20616;-67
2022/02/27 04:49:59;;;;;;;13.45;5.43;;;0.40;99.90;;;;;;5077946;28;20124;-67
2022/02/27 04:52:25;;;;;;;14.57;5.55;;;0.40;99.90;;;;;;5059051;28;20405;-67
2022/02/27 04:54:51;;;;;;;12.43;5.28;;;0.40;99.90;;;;;;5057403;28;20080;-67
2022/02/27 04:57:17;;;;;;;12.38;5.97;;;0.40;99.90;;;;;;5060330;28;20570;-68
2022/02/27 04:59:42;;;;;;;17.70;4.93;;;0.40;99.90;;;;;;5075521;28;20063;-68
2022/02/27 05:02:08;;;;;;;16.75;5.60;;;0.40;99.90;;;;;;5056331;28;20147;-68
2022/02/27 05:04:34;;;;;;;14.02;5.10;;;0.30;99.90;;;;;;5063695;28;20565;-68
2022/02/27 05:07:01;;;;;;;15.32;5.35;;;0.30;99.90;;;;;;5056919;28;20041;-68
2022/02/27 05:09:27;;;;;;;16.05;5.05;;;0.30;99.90;;;;;;5045706;28;20085;-68
2022/02/27 05:11:53;;;;;;;12.95;4.85;;;0.30;99.90;;;;;;5060283;28;20365;-68
2022/02/27 05:14:19;;;;;;;16.50;5.18;;;0.30;99.90;;;;;;5078971;28;20448;-68
2022/02/27 05:16:44;;;;;;;19.42;5.80;;;0.30;99.90;;;;;;5055727;28;20147;-68
2022/02/27 05:19:10;;;;;;;18.70;5.55;;;0.20;99.90;;;;;;5061819;28;20085;-68
2022/02/27 05:21:36;;;;;;;13.48;4.85;;;0.20;99.90;;;;;;5058105;28;20120;-68
2022/02/27 05:24:02;;;;;;;17.85;5.13;;;0.20;99.90;;;;;;5058562;28;20093;-68
2022/02/27 05:26:28;;;;;;;17.17;5.78;;;0.20;99.90;;;;;;5061239;28;20029;-68
2022/02/27 05:28:54;;;;;;;18.42;4.93;;;0.20;99.90;;;;;;5042686;28;20121;-68
2022/02/27 05:31:20;;;;;;;17.15;5.80;;;0.20;99.90;;;;;;5056771;28;20232;-68
2022/02/27 05:33:46;;;;;;;16.42;5.45;;;0.20;99.90;;;;;;5064019;28;20047;-68
2022/02/27 05:36:11;;;;;;;16.77;5.60;;;0.20;99.90;;;;;;5057030;28;20035;-68
2022/02/27 05:38:37;;;;;;;18.55;5.50;;;0.20;99.90;;;;;;5061734;28;20059;-68
2022/02/27 05:41:03;;;;;;;20.65;5.95;;;0.20;99.90;;;;;;5045957;28;20044;-68
2022/02/27 05:43:29;;;;;;;14.52;4.90;;;0.30;99.90;;;;;;5058694;28;20105;-68
2022/02/27 05:45:55;;;;;;;22.90;5.95;;;0.30;99.90;;;;;;5059055;28;20052;-68
2022/02/27 05:48:20;;;;;;;15.40;5.97;;;0.30;99.90;;;;;;5061472;28;20079;-68
2022/02/27 05:50:46;;;;;;;14.55;5.47;;;0.30;99.90;;;;;;5077944;28;20109;-68
2022/02/27 05:53:12;;;;;;;18.85;5.47;;;0.30;99.90;;;;;;5063591;28;20066;-68
2022/02/27 05:55:38;;;;;;;15.45;5.72;;;0.30;99.90;;;;;;5058682;28;20123;-69
2022/02/27 05:58:04;;;;;;;18.40;5.65;;;0.30;99.90;;;;;;5076632;28;20039;-69
2022/02/27 06:00:29;;;;;;;13.32;5.40;;;0.30;99.90;;;;;;5044454;28;20048;-69
2022/02/27 06:02:55;;;;;;;14.73;5.13;;;0.30;99.90;;;;;;5064620;28;20053;-69
2022/02/27 06:05:21;;;;;;;15.60;5.38;;;0.30;99.90;;;;;;5063363;28;20039;-69
2022/02/27 06:07:47;;;;;;;19.48;5.63;;;0.30;99.90;;;;;;5062543;28;20044;-69
2022/02/27 06:10:13;;;;;;;18.15;6.03;;;0.30;99.90;;;;;;5064521;28;20468;-69
2022/02/27 06:12:47;;;;;;;21.17;5.90;;;0.30;99.90;;;;;;5063213;28;20043;-69
2022/02/27 06:15:12;;;;;;;24.60;6.50;;;0.40;99.90;;;;;;5064082;28;20058;-69
2022/02/27 06:17:38;;;;;;;19.48;5.93;;;0.30;99.90;;;;;;5062425;28;20681;-69
2022/02/27 06:20:05;;;;;;;14.80;5.50;;;0.30;99.90;;;;;;5061746;28;20130;-69
2022/02/27 06:22:30;;;;;;;16.52;6.70;;;0.40;99.90;;;;;;5063588;28;20066;-69
2022/02/27 06:24:56;;;;;;;18.75;5.95;;;0.30;99.90;;;;;;5083278;28;20032;-69
2022/02/27 06:27:21;;;;;;;13.18;5.00;;;0.30;99.90;;;;;;5062714;28;20041;-69
2022/02/27 06:29:48;;;;;;;18.50;6.18;;;0.30;99.90;;;;;;5083697;28;20097;-69
2022/02/27 06:32:13;;;;;;;11.60;5.57;;;0.30;99.90;;;;;;5062612;28;20035;-69
2022/02/27 06:34:39;;;;;;;16.77;5.45;;;0.30;99.90;;;;;;5062781;28;20033;-69
2022/02/27 06:37:05;;;;;;;17.48;5.70;;;0.40;99.90;;;;;;5063895;28;20037;-69
2022/02/27 06:39:30;;;;;;;18.08;5.25;;;0.40;99.90;;;;;;5063308;28;20892;-69
2022/02/27 06:41:56;;;;;;;15.02;6.07;;;0.40;99.90;;;;;;5064367;28;20032;-69
2022/02/27 06:44:22;;;;;;;17.30;5.47;;;0.40;99.90;;;;;;5065452;28;20047;-69
2022/02/27 06:46:47;;;;;;;11.35;4.97;;;0.50;99.90;;;;;;5062755;28;20456;-69
2022/02/27 06:49:13;;;;;;;14.85;5.90;;;0.50;99.90;;;;;;5082936;28;20433;-68
2022/02/27 06:51:39;;;;;;;13.38;5.85;;;0.50;99.90;;;;;;5063654;28;21482;-69
2022/02/27 06:54:05;;;;;;;17.77;5.72;;;0.60;99.90;;;;;;5048278;28;20032;-69
2022/02/27 06:56:30;;;;;;;15.38;6.18;;;0.60;99.90;;;;;;5062539;28;20051;-69
2022/02/27 06:58:56;;;;;;;16.10;6.68;;;0.60;99.90;;;;;;5062550;28;20059;-69
2022/02/27 07:01:22;;;;;;;12.57;5.18;;;0.60;99.90;;;;;;5064211;28;20032;-69
2022/02/27 07:03:47;;;;;;;14.90;6.00;;;0.70;99.90;;;;;;5061593;28;20630;-69
2022/02/27 07:06:13;;;;;;;14.43;5.68;;;0.80;99.90;;;;;;5064987;28;20040;-69
2022/02/27 07:08:38;;;;;;;11.40;5.28;;;0.80;99.90;;;;;;5050034;28;20120;-69
2022/02/27 07:11:04;;;;;;;13.52;5.93;;;0.90;99.90;;;;;;5081628;28;20074;-69
2022/02/27 07:13:30;;;;;;;18.80;6.05;;;0.90;99.90;;;;;;5080671;28;20035;-69
2022/02/27 07:15:56;;;;;;;18.52;5.72;;;1.00;99.90;;;;;;5083501;28;20032;-69
2022/02/27 07:18:22;;;;;;;18.05;6.25;;;1.10;99.90;;;;;;5065834;28;20481;-68
2022/02/27 07:20:47;;;;;;;17.05;5.70;;;1.10;99.90;;;;;;5067454;28;20059;-68
2022/02/27 07:23:13;;;;;;;16.33;5.90;;;1.20;99.90;;;;;;5064363;28;20036;-68
2022/02/27 07:25:39;;;;;;;16.98;5.40;;;1.30;99.90;;;;;;5063693;28;20157;-68
2022/02/27 07:28:05;;;;;;;12.95;5.55;;;1.40;99.90;;;;;;5060738;28;20165;-68
2022/02/27 07:30:31;;;;;;;11.57;5.75;;;1.50;99.90;;;;;;5047671;28;20051;-68
2022/02/27 07:32:56;;;;;;;19.33;5.43;;;1.60;99.90;;;;;;5059631;28;20187;-68
2022/02/27 07:35:22;;;;;;;15.23;5.65;;;1.70;99.90;;;;;;5065749;28;20119;-68
2022/02/27 07:37:48;;;;;;;13.27;5.57;;;1.80;99.90;;;;;;5059300;28;20415;-68
2022/02/27 07:40:14;;;;;;;11.45;5.35;;;2.10;99.90;;;;;;5078478;28;20034;-68
2022/02/27 07:42:39;;;;;;;15.82;5.90;;;2.60;99.90;;;;;;5045883;28;20052;-68
2022/02/27 07:45:05;;;;;;;15.45;5.32;;;3.30;99.90;;;;;;5083408;28;20054;-68
2022/02/27 07:47:31;;;;;;;13.18;5.50;;;3.90;99.90;;;;;;5065249;28;20110;-68
2022/02/27 07:49:57;;;;;;;12.80;5.18;;;4.70;99.90;;;;;;5069168;28;20496;-69
2022/02/27 07:52:22;;;;;;;11.43;5.55;;;5.50;99.90;;;;;;5080300;28;20040;-69
2022/02/27 07:54:48;;;;;;;14.07;5.47;;;6.20;99.90;;;;;;5062630;28;20092;-69
2022/02/27 07:57:14;;;;;;;16.10;5.40;;;6.60;99.90;;;;;;5078603;28;20031;-69
2022/02/27 07:59:40;;;;;;;16.92;4.13;;;7.00;99.90;;;;;;5083963;28;20048;-69
2022/02/27 08:02:06;;;;;;;11.35;4.38;;;7.40;99.90;;;;;;5060251;28;20104;-69
2022/02/27 08:04:32;;;;;;;14.98;4.80;;;7.70;99.90;;;;;;5079117;28;20124;-69
2022/02/27 08:06:58;;;;;;;11.82;4.70;;;8.00;97.80;;;;;;5063583;28;20128;-69
2022/02/27 08:09:24;;;;;;;14.32;5.30;;;8.30;96.70;;;;;;5063495;28;20032;-69
2022/02/27 08:11:50;;;;;;;14.13;4.75;;;8.60;96.10;;;;;;5077018;28;20177;-70
2022/02/27 08:14:15;;;;;;;10.20;3.47;;;8.90;95.00;;;;;;5063197;28;20396;-69
2022/02/27 08:16:41;;;;;;;12.93;4.40;;;9.10;94.60;;;;;;5080540;28;20085;-69
2022/02/27 08:19:07;;;;;;;13.05;3.65;;;9.40;94.40;;;;;;5062897;28;20079;-69
2022/02/27 08:21:33;;;;;;;15.35;4.22;;;9.80;92.90;;;;;;5080548;28;20641;-67
2022/02/27 08:23:59;;;;;;;11.70;3.95;;;10.10;91.40;;;;;;5080689;28;20074;-69
2022/02/27 08:26:25;;;;;;;10.57;3.78;;;10.40;91.80;;;;;;5060505;28;20079;-69
2022/02/27 08:28:50;;;;;;;9.98;3.85;;;10.50;90.00;;;;;;5062052;28;20035;-69
2022/02/27 08:31:16;;;;;;;15.05;5.03;;;10.80;88.70;;;;;;5060647;28;20128;-69
2022/02/27 08:33:42;;;;;;;14.13;4.10;;;10.80;86.10;;;;;;5076457;28;20044;-70
2022/02/27 08:36:09;;;;;;;13.40;4.30;;;10.80;85.10;;;;;;5079045;28;20503;-69
2022/02/27 08:38:35;;;;;;;12.90;4.30;;;10.80;84.10;;;;;;5065836;28;20056;-70
2022/02/27 08:41:01;;;;;;;12.52;4.00;;;11.20;82.60;;;;;;5061563;28;20044;-69
2022/02/27 08:43:27;;;;;;;15.13;4.63;;;11.20;81.30;;;;;;5065524;28;20050;-69
2022/02/27 08:45:52;;;;;;;14.98;4.45;;;11.50;81.40;;;;;;5059375;28;20040;-69
2022/02/27 08:48:18;;;;;;;12.02;4.70;;;12.00;80.80;;;;;;5081189;28;20134;-70
2022/02/27 08:50:44;;;;;;;14.07;4.47;;;12.20;78.80;;;;;;5062388;28;20587;-70
2022/02/27 08:53:10;;;;;;;11.95;4.78;;;12.10;77.30;;;;;;5078808;28;20086;-70
2022/02/27 08:55:36;;;;;;;11.85;4.38;;;12.20;76.40;;;;;;5080813;28;21777;-70
2022/02/27 08:58:02;;;;;;;11.65;4.30;;;12.00;74.70;;;;;;5080515;28;20480;-69
2022/02/27 09:00:28;;;;;;;12.90;4.10;;;12.00;74.70;;;;;;5063908;28;20055;-70
2022/02/27 09:02:54;;;;;;;12.75;4.30;;;12.20;74.50;;;;;;5056252;28;20395;-70
2022/02/27 09:05:20;;;;;;;10.68;4.53;;;12.10;72.00;;;;;;5059892;28;20135;-70
2022/02/27 09:07:45;;;;;;;9.98;4.00;;;12.20;73.00;;;;;;5063385;28;20045;-70
2022/02/27 09:10:15;;;;;;;11.65;4.28;;;12.30;72.60;;;;;;5058732;28;20105;-69
2022/02/27 09:12:42;;;;;;;9.30;4.20;;;12.60;71.50;;;;;;5061349;28;20384;-70
2022/02/27 09:15:09;;;;;;;10.40;3.70;;;12.70;68.40;;;;;;5061379;28;21730;-70
2022/02/27 09:17:35;;;;;;;10.95;3.85;;;12.60;69.40;;;;;;5078953;28;20059;-70
2022/02/27 09:20:01;;;;;;;9.48;3.47;;;12.80;69.20;;;;;;5078941;28;20518;-70
2022/02/27 09:22:27;;;;;;;8.50;3.60;;;13.00;67.30;;;;;;5079798;28;20043;-70
2022/02/27 09:24:52;;;;;;;9.52;3.60;;;13.00;67.60;;;;;;5082179;28;20028;-70
2022/02/27 09:27:18;;;;;;;9.07;3.22;;;13.20;66.70;;;;;;5060892;28;20193;-69
2022/02/27 09:29:44;;;;;;;8.88;3.40;;;13.30;66.30;;;;;;5063096;28;20041;-69
2022/02/27 09:32:09;;;;;;;11.70;4.13;;;13.50;65.30;;;;;;5062229;28;20108;-70
2022/02/27 09:34:35;;;;;;;9.35;3.97;;;13.20;65.70;;;;;;5061959;28;20032;-69
2022/02/27 09:37:01;;;;;;;10.52;3.65;;;13.50;66.60;;;;;;5062614;28;20188;-69
2022/02/27 09:39:29;;;;;;;8.02;3.83;;;13.80;64.20;;;;;;5081759;28;20044;-69
2022/02/27 09:41:55;;;;;;;8.30;3.42;;;13.60;63.60;;;;;;5062760;28;20174;-69
2022/02/27 09:44:22;;;;;;;9.63;4.22;;;13.90;64.10;;;;;;5062447;28;20580;-69
2022/02/27 09:46:49;;;;;;;11.15;4.00;;;13.90;62.70;;;;;;5064499;28;20182;-69
2022/02/27 09:49:16;;;;;;;9.02;3.22;;;14.10;63.10;;;;;;5059722;28;20059;-70
2022/02/27 09:51:43;;;;;;;9.15;3.28;;;14.50;62.40;;;;;;5063004;28;20187;-70
2022/02/27 09:54:13;;;;;;;9.23;3.35;;;14.50;60.20;;;;;;5063634;28;20128;-70
2022/02/27 09:56:42;;;;;;;8.68;3.00;;;14.50;59.70;;;;;;5061155;28;20416;-70
2022/02/27 09:59:11;;;;;;;7.75;3.17;;;14.20;58.20;;;;;;5057233;28;20049;-70
2022/02/27 10:01:57;;;;;;;16.95;8.95;;;13.90;60.00;;;;;;5059574;28;21718;-70
2022/02/27 10:04:25;;;;;;;9.70;3.40;;;14.00;60.30;;;;;;5063659;28;20554;-70
2022/02/27 10:06:51;;;;;;;8.10;3.60;;;14.00;60.30;;;;;;5060872;28;20079;-70
2022/02/27 10:09:24;;;;;;;10.43;3.67;;;14.30;59.00;;;;;;5060893;28;20211;-69
2022/02/27 10:11:53;;;;;;;7.80;3.35;;;14.20;60.00;;;;;;5065217;28;20029;-69
2022/02/27 10:14:27;;;;;;;8.98;3.30;;;14.30;58.10;;;;;;5059448;28;20501;-69
2022/02/27 10:17:02;;;;;;;11.30;3.92;;;14.30;60.10;;;;;;5061474;28;20088;-69
2022/02/27 10:19:28;;;;;;;8.88;3.88;;;14.30;59.40;;;;;;5064415;28;20036;-69
2022/02/27 10:21:53;;;;;;;9.18;3.22;;;14.60;59.60;;;;;;5061385;28;20049;-69
2022/02/27 10:24:19;;;;;;;9.30;3.38;;;14.50;58.30;;;;;;5061854;28;20047;-69
2022/02/27 10:26:48;;;;;;;8.55;3.50;;;14.10;58.50;;;;;;5061254;28;20029;-69
2022/02/27 10:29:25;;;;;;;6.90;3.20;;;14.20;58.60;;;;;;5059598;28;20509;-69
2022/02/27 10:31:56;;;;;;;11.27;4.05;;;14.30;57.70;;;;;;5061579;28;20054;-69
2022/02/27 10:34:28;;;;;;;10.38;3.85;;;14.30;58.00;;;;;;5056294;28;20123;-69
2022/02/27 10:36:58;;;;;;;8.23;3.55;;;14.20;58.00;;;;;;5063939;28;20028;-69
2022/02/27 10:39:27;;;;;;;9.13;3.97;;;14.30;57.60;;;;;;5062570;28;20044;-69
2022/02/27 10:41:53;;;;;;;10.23;4.13;;;14.20;58.40;;;;;;5063341;28;20115;-69
2022/02/27 10:44:25;;;;;;;10.50;4.32;;;14.30;57.70;;;;;;5069151;28;20116;-69
2022/02/27 10:47:21;;;;;;;9.70;4.18;;;14.40;56.90;;;;;;5063623;28;20122;-69
2022/02/27 10:49:49;;;;;;;8.32;3.72;;;14.50;57.30;;;;;;5072347;28;20056;-69
2022/02/27 10:52:16;;;;;;;8.98;3.60;;;14.30;56.40;;;;;;5061631;28;20048;-69
2022/02/27 10:54:44;;;;;;;8.65;3.35;;;14.10;57.10;;;;;;5064469;28;20046;-70
2022/02/27 10:57:28;;;;;;;7.70;3.25;;;14.00;57.10;;;;;;5064944;28;20121;-70
2022/02/27 10:59:55;;;;;;;8.93;3.42;;;14.10;57.30;;;;;;5065984;28;20520;-69
2022/02/27 11:02:27;;;;;;;9.40;3.63;;;14.40;57.40;;;;;;5064072;28;20047;-69
2022/02/27 11:04:53;;;;;;;9.82;3.53;;;14.40;56.90;;;;;;5060803;28;20052;-70
2022/02/27 11:07:19;;;;;;;10.65;3.53;;;14.60;55.60;;;;;;5046919;28;20106;-70
2022/02/27 11:09:45;;;;;;;7.47;3.17;;;14.50;54.80;;;;;;5081324;28;20534;-70
2022/02/27 11:12:14;;;;;;;6.15;3.00;;;14.30;54.50;;;;;;5062747;28;20389;-70
2022/02/27 11:14:42;;;;;;;10.68;3.75;;;14.20;55.00;;;;;;5061856;28;20086;-70
2022/02/27 11:17:11;;;;;;;7.18;3.22;;;14.20;55.60;;;;;;5058557;28;20065;-69
2022/02/27 11:19:37;;;;;;;6.45;3.00;;;14.40;55.20;;;;;;5066368;28;20499;-70
2022/02/27 11:22:05;;;;;;;8.40;3.05;;;14.40;55.70;;;;;;5058055;28;20109;-70
2022/02/27 11:24:33;;;;;;;8.50;3.38;;;14.30;55.20;;;;;;5080664;28;20040;-67
2022/02/27 11:27:00;;;;;;;8.68;3.30;;;14.20;55.20;;;;;;5056647;28;20057;-67
2022/02/27 11:29:26;;;;;;;8.13;3.30;;;14.20;55.60;;;;;;5081334;28;20059;-68
2022/02/27 11:31:52;;;;;;;10.32;3.30;;;14.20;55.90;;;;;;5067653;28;20048;-68
2022/02/27 11:34:19;;;;;;;7.38;3.05;;;14.30;55.40;;;;;;5083196;28;20468;-68
2022/02/27 11:36:49;;;;;;;10.10;3.45;;;14.40;55.70;;;;;;5082099;28;20044;-68
2022/02/27 11:41:59;;;;;;;7.20;4.03;;;14.40;54.90;;;;;;5081658;28;20051;-69
2022/02/27 11:44:38;;;;;;;8.32;3.35;;;14.50;54.70;;;;;;5060097;28;20052;-69
2022/02/27 11:47:11;;;;;;;6.40;2.63;;;14.70;54.20;;;;;;5064365;28;20055;-70
2022/02/27 11:49:44;;;;;;;6.20;3.03;;;14.90;54.20;;;;;;5061719;28;20075;-70
2022/02/27 11:52:16;;;;;;;6.55;2.90;;;15.30;53.40;;;;;;5065173;28;20408;-70
2022/02/27 11:55:02;;;;;;;7.18;2.53;;;15.60;51.90;;;;;;5056801;28;20048;-70
2022/02/27 11:57:31;;;;;;;5.78;2.28;;;15.60;51.10;;;;;;5064828;28;20574;-71
2022/02/27 12:00:08;;;;;;;6.38;3.03;;;15.40;50.80;;;;;;5062077;28;20052;-70
2022/02/27 12:02:43;;;;;;;7.68;3.15;;;15.10;52.00;;;;;;5080547;28;20119;-67
2022/02/27 12:05:13;;;;;;;6.13;2.80;;;14.80;51.20;;;;;;5077341;28;20032;-67
2022/02/27 12:07:57;;;;;;;5.90;2.47;;;14.90;51.30;;;;;;5057115;28;20058;-68
2022/02/27 12:10:41;;;;;;;6.13;2.80;;;14.90;51.50;;;;;;5083763;28;20033;-68
2022/02/27 12:13:25;;;;;;;7.97;3.58;;;15.20;52.70;;;;;;5082363;28;20036;-68
2022/02/27 12:16:13;;;;;;;7.00;2.72;;;15.40;51.40;;;;;;5075952;28;20481;-68
2022/02/27 12:19:22;;;;;;;5.70;2.45;;;15.20;51.80;;;;;;5059978;28;20181;-66
2022/02/27 12:21:52;;;;;;;5.80;2.42;;;15.20;51.50;;;;;;5029730;28;20052;-66
2022/02/27 12:24:28;;;;;;;5.82;2.30;;;15.40;51.80;;;;;;5082271;28;20047;-66
2022/02/27 12:26:55;;;;;;;9.05;2.63;;;15.50;50.70;;;;;;5060635;28;20044;-66
2022/02/27 12:29:46;;;;;;;5.20;2.30;;;15.40;50.70;;;;;;5079623;28;20075;-66
2022/02/27 12:32:22;;;;;;;6.38;2.60;;;15.50;49.50;;;;;;5084027;28;20046;-68
2022/02/27 12:34:54;;;;;;;5.55;2.20;;;15.30;49.30;;;;;;5082999;28;20040;-68
2022/02/27 12:37:22;;;;;;;5.20;1.80;;;15.20;50.10;;;;;;5062370;28;20117;-70
2022/02/27 12:39:51;;;;;;;4.35;2.20;;;15.10;49.10;;;;;;5079568;28;20154;-69
2022/02/27 12:42:20;;;;;;;5.65;2.10;;;14.80;50.10;;;;;;5062264;28;20439;-69
2022/02/27 12:44:51;;;;;;;6.75;2.17;;;15.00;49.90;;;;;;5064171;28;20090;-70
2022/02/27 12:47:20;;;;;;;5.60;2.33;;;15.00;49.30;;;;;;5046369;28;20123;-69
2022/02/27 12:52:39;;;;;;;4.78;2.40;;;14.70;49.20;;;;;;5056542;28;20119;-70